aviador You're here:

OTBD Decoded Metar

DOHA in QATAR
Report Time2017-06-25 20:00:00
UTC Time2017-06-25 20:36:54
Flight Rules vfr VFR
Wind310° at 05 kt
W.Decomp.*RWY 33: 4.6 kt HW 1.9 kt LCW
W.Rank310° ranks 1
Current wind is below 310° avg. (8.7)
Visibility9999 m
Phenomena:N/A
Clouds:N/A
Expected CloudBase > 9,200 ft AGL from Temp-Dew spread
CeilingNone
Temp35°C (ISA +20)
Dew Point12°C (25% RH)
Heat Index33.7°C
AAT33.8°C
QNH0999 hPa
Density Alt2,969 ft
Elevation33 ft
Report Wrong Elevation
Raw Report
METAR OTBD 252000Z 31005KT CAVOK 35/12 Q0999 NOSIG=

Extra information for OTBD:More info

Metar Taf Metar & Taf Last 4 Metars F.Rules Stats Wind Profile Meteogram Temp Stats Airport Information Weather charts Add Link Nearby VenuesMetar ALERT Operation Metar Decoded Social comments